Time;durP1;ratioP1;P1;durP2;ratioP2;P2;SDS_P1;SDS_P2;PMS_P1;PMS_P2;Temp;Humidity;BMP_temperature;BMP_pressure;BME280_temperature;BME280_humidity;BME280_pressure;Samples;Min_cycle;Max_cycle;Signal;HPM_P1;HPM_P2
2022/10/14 00:01:35;;;;;;;11.37;8.30;;;12.60;99.90;;;;;;5003406;28;20336;-74
2022/10/14 00:04:01;;;;;;;8.43;7.27;;;12.50;99.90;;;;;;5002180;28;20540;-73
2022/10/14 00:06:29;;;;;;;11.40;7.30;;;12.50;99.90;;;;;;4997284;28;20187;-73
2022/10/14 00:08:58;;;;;;;12.10;7.97;;;12.50;99.90;;;;;;4985519;28;20219;-73
2022/10/14 00:11:26;;;;;;;14.73;9.10;;;12.50;99.90;;;;;;4999110;28;20434;-73
2022/10/14 00:14:13;;;;;;;16.20;9.60;;;12.60;99.90;;;;;;5001916;28;20498;-73
2022/10/14 00:16:41;;;;;;;12.80;9.10;;;12.60;99.90;;;;;;4997654;28;20597;-74
2022/10/14 00:19:06;;;;;;;9.37;7.70;;;12.60;99.90;;;;;;4995298;28;20421;-73
2022/10/14 00:21:33;;;;;;;13.67;9.23;;;12.60;99.90;;;;;;5003432;28;20437;-73
2022/10/14 00:23:58;;;;;;;10.10;8.53;;;12.60;99.90;;;;;;5001304;28;20558;-74
2022/10/14 00:26:36;;;;;;;10.37;8.50;;;12.60;99.90;;;;;;4996027;28;20423;-73
2022/10/14 00:29:04;;;;;;;12.77;8.13;;;12.60;99.90;;;;;;4994141;28;20174;-73
2022/10/14 00:31:29;;;;;;;11.60;7.60;;;12.60;99.90;;;;;;5003404;28;20540;-73
2022/10/14 00:33:55;;;;;;;14.63;9.23;;;12.60;99.90;;;;;;5001811;28;21003;-73
2022/10/14 00:36:23;;;;;;;8.60;7.67;;;12.60;99.90;;;;;;4996747;28;20596;-72
2022/10/14 00:38:49;;;;;;;11.77;8.67;;;12.60;99.90;;;;;;4988136;28;20204;-73
2022/10/14 00:41:31;;;;;;;19.33;8.43;;;12.60;99.90;;;;;;4996777;28;20445;-74
2022/10/14 00:44:07;;;;;;;11.00;8.40;;;12.60;99.90;;;;;;5000249;28;20418;-73
2022/10/14 00:46:41;;;;;;;14.07;8.10;;;12.50;99.90;;;;;;4997859;28;20477;-73
2022/10/14 00:49:17;;;;;;;9.53;8.53;;;12.50;99.90;;;;;;5001705;28;20448;-73
2022/10/14 00:51:47;;;;;;;9.83;7.73;;;12.50;99.90;;;;;;4999575;28;20446;-73
2022/10/14 00:54:15;;;;;;;8.93;7.40;;;12.50;99.90;;;;;;4982955;28;20428;-74
2022/10/14 00:56:43;;;;;;;11.67;8.23;;;12.60;99.90;;;;;;5000355;28;20477;-73
2022/10/14 00:59:09;;;;;;;8.67;7.50;;;12.60;99.90;;;;;;4996572;28;20824;-73
2022/10/14 02:32:17;;;;;;;10.10;6.27;;;12.70;99.90;;;;;;5481114;23;20510;-71
2022/10/14 02:34:47;;;;;;;7.80;6.30;;;12.60;99.90;;;;;;5017449;28;20778;-71
2022/10/14 02:37:14;;;;;;;7.53;5.13;;;12.60;99.90;;;;;;5018845;28;20468;-71
2022/10/14 02:39:47;;;;;;;8.10;5.90;;;12.60;99.90;;;;;;5016045;28;20864;-72
2022/10/14 02:42:13;;;;;;;6.93;5.80;;;12.60;99.90;;;;;;5015867;28;20444;-71
2022/10/14 02:44:51;;;;;;;8.90;6.73;;;12.60;99.90;;;;;;5015941;28;20414;-72
2022/10/14 02:47:17;;;;;;;10.83;6.30;;;12.60;99.90;;;;;;5014714;28;20689;-70
2022/10/14 02:49:42;;;;;;;6.47;5.40;;;12.60;99.90;;;;;;5014544;28;20450;-71
2022/10/14 02:52:07;;;;;;;7.93;5.83;;;12.50;99.90;;;;;;5012175;28;20213;-71
2022/10/14 02:54:33;;;;;;;6.00;5.40;;;12.50;99.90;;;;;;5021110;28;20181;-68
2022/10/14 02:56:59;;;;;;;12.97;6.43;;;12.50;99.90;;;;;;5017772;28;20808;-72
2022/10/14 02:59:24;;;;;;;5.57;4.97;;;12.40;99.90;;;;;;5012905;28;20187;-72
2022/10/14 03:01:50;;;;;;;11.03;5.37;;;12.50;99.90;;;;;;5010634;28;20201;-72
2022/10/14 03:04:15;;;;;;;6.10;5.50;;;12.50;99.90;;;;;;5022191;28;20174;-71
2022/10/14 03:06:41;;;;;;;8.50;5.70;;;12.50;99.90;;;;;;5018075;28;20191;-72
2022/10/14 03:09:06;;;;;;;9.50;7.20;;;12.50;99.90;;;;;;5012125;28;20209;-71
2022/10/14 03:11:32;;;;;;;11.57;8.23;;;12.50;99.90;;;;;;5007680;28;20198;-72
2022/10/14 03:13:57;;;;;;;9.23;8.33;;;12.40;99.90;;;;;;5022674;28;20209;-72
2022/10/14 03:16:23;;;;;;;15.50;8.27;;;12.40;99.90;;;;;;5019655;28;20657;-71
2022/10/14 03:18:48;;;;;;;17.67;7.80;;;12.40;99.90;;;;;;5011947;28;20177;-71
2022/10/14 03:21:14;;;;;;;9.27;6.77;;;12.40;99.90;;;;;;5006326;28;20199;-71
2022/10/14 03:23:39;;;;;;;9.40;6.47;;;12.50;99.90;;;;;;5021599;28;20182;-71
2022/10/14 03:26:04;;;;;;;7.77;6.50;;;12.40;99.90;;;;;;5022569;28;20213;-72
2022/10/14 03:28:30;;;;;;;8.60;7.00;;;12.50;99.90;;;;;;5011343;28;20434;-71
2022/10/14 03:30:56;;;;;;;13.27;8.93;;;12.40;99.90;;;;;;5006248;28;20202;-71
2022/10/14 03:33:21;;;;;;;9.50;8.50;;;12.40;99.90;;;;;;5018993;28;20193;-72
2022/10/14 03:35:47;;;;;;;9.10;7.93;;;12.40;99.90;;;;;;5025078;28;20182;-72
2022/10/14 03:38:12;;;;;;;9.70;8.70;;;12.40;99.90;;;;;;5018413;28;20226;-71
2022/10/14 03:40:38;;;;;;;15.40;10.03;;;12.40;99.90;;;;;;5008235;28;20183;-71
2022/10/14 03:43:03;;;;;;;8.07;6.97;;;12.40;99.90;;;;;;5025215;28;20501;-71
2022/10/14 03:45:29;;;;;;;7.80;6.63;;;12.40;99.90;;;;;;5007022;28;20187;-71
2022/10/14 03:47:55;;;;;;;12.93;6.17;;;12.40;99.90;;;;;;5022669;28;20237;-71
2022/10/14 03:50:21;;;;;;;10.73;7.70;;;12.40;99.90;;;;;;5022243;28;20180;-71
2022/10/14 03:52:46;;;;;;;10.43;7.57;;;12.40;99.90;;;;;;5015389;28;20970;-71
2022/10/14 03:55:12;;;;;;;13.93;8.50;;;12.40;99.90;;;;;;5021887;28;20205;-71
2022/10/14 03:57:37;;;;;;;15.47;7.27;;;12.30;99.90;;;;;;5017751;28;20663;-71
2022/10/14 04:00:04;;;;;;;9.57;7.43;;;12.30;99.90;;;;;;5011627;28;20586;-71
2022/10/14 04:02:30;;;;;;;9.97;6.73;;;12.30;99.90;;;;;;5007605;28;20261;-73
2022/10/14 04:04:55;;;;;;;7.37;6.60;;;12.30;99.90;;;;;;5025275;28;20425;-73
2022/10/14 04:07:21;;;;;;;8.07;7.17;;;12.30;99.90;;;;;;5020231;28;20196;-72
2022/10/14 04:09:47;;;;;;;11.63;7.50;;;12.30;99.90;;;;;;5012152;28;20182;-73
2022/10/14 04:12:13;;;;;;;11.23;8.50;;;12.30;99.90;;;;;;5006050;28;20195;-73
2022/10/14 04:14:38;;;;;;;9.83;8.20;;;12.30;99.90;;;;;;5019278;28;20206;-73
2022/10/14 04:17:04;;;;;;;12.83;7.97;;;12.30;99.90;;;;;;5021601;28;20674;-73
2022/10/14 04:19:29;;;;;;;10.90;7.90;;;12.30;99.90;;;;;;5022962;28;20178;-73
2022/10/14 04:21:55;;;;;;;9.07;8.17;;;12.40;99.90;;;;;;5024982;28;20201;-73
2022/10/14 04:24:20;;;;;;;12.57;8.80;;;12.30;99.90;;;;;;5007717;28;20179;-74
2022/10/14 04:26:49;;;;;;;14.47;9.03;;;12.30;99.90;;;;;;5021508;28;20651;-73
2022/10/14 04:29:15;;;;;;;10.17;8.17;;;12.30;99.90;;;;;;5021667;28;20186;-74
2022/10/14 04:31:40;;;;;;;14.23;8.50;;;12.30;99.90;;;;;;5023778;28;21078;-74
2022/10/14 04:34:05;;;;;;;10.80;9.50;;;12.40;99.90;;;;;;5019797;28;20653;-73
2022/10/14 04:36:31;;;;;;;21.93;10.57;;;12.40;99.90;;;;;;5009794;28;20186;-74
2022/10/14 04:38:57;;;;;;;10.90;9.80;;;12.40;99.90;;;;;;5020318;28;20183;-73
2022/10/14 04:41:22;;;;;;;13.13;9.00;;;12.40;99.90;;;;;;4991595;28;20196;-73
2022/10/14 04:43:48;;;;;;;14.33;9.40;;;12.40;99.90;;;;;;5017245;28;20232;-73
2022/10/14 04:46:13;;;;;;;14.80;10.40;;;12.30;99.90;;;;;;5022597;28;20178;-73
2022/10/14 04:48:39;;;;;;;14.40;9.97;;;12.30;99.90;;;;;;5012336;28;20195;-73
2022/10/14 04:51:04;;;;;;;17.50;12.00;;;12.40;99.90;;;;;;5007159;28;20213;-73
2022/10/14 04:53:30;;;;;;;15.97;10.03;;;12.40;99.90;;;;;;5022626;28;20595;-73
2022/10/14 04:55:55;;;;;;;14.57;9.13;;;12.40;99.90;;;;;;5024680;28;20185;-73
2022/10/14 04:58:21;;;;;;;14.57;10.17;;;12.40;99.90;;;;;;5022688;28;20294;-74
2022/10/14 05:00:46;;;;;;;12.33;9.20;;;12.40;99.90;;;;;;5024612;28;20315;-73
2022/10/14 05:03:12;;;;;;;13.13;10.87;;;12.40;99.90;;;;;;5014386;28;20175;-74
2022/10/14 05:05:37;;;;;;;15.30;10.60;;;12.40;99.90;;;;;;5005562;28;20202;-74
2022/10/14 05:08:03;;;;;;;12.40;9.77;;;12.40;99.90;;;;;;5020946;28;20555;-74
2022/10/14 05:10:29;;;;;;;14.43;11.47;;;12.40;99.90;;;;;;5021913;28;20586;-74
2022/10/14 05:12:54;;;;;;;16.10;10.50;;;12.40;99.90;;;;;;5007442;28;20292;-74
2022/10/14 05:15:20;;;;;;;16.10;11.20;;;12.40;99.90;;;;;;5020720;28;20268;-73
2022/10/14 05:17:46;;;;;;;15.40;10.17;;;12.40;99.90;;;;;;5014762;28;20688;-73
2022/10/14 05:20:12;;;;;;;23.90;12.83;;;12.40;99.90;;;;;;5020850;28;20413;-74
2022/10/14 05:22:38;;;;;;;17.97;11.73;;;12.50;99.90;;;;;;5018785;28;20205;-73
2022/10/14 05:25:04;;;;;;;13.43;11.10;;;12.50;99.90;;;;;;5000156;28;20174;-71
2022/10/14 05:27:30;;;;;;;15.67;10.83;;;12.50;99.90;;;;;;5017641;28;20459;-72
2022/10/14 05:29:55;;;;;;;12.87;9.83;;;12.50;99.90;;;;;;5005983;28;20536;-72
2022/10/14 05:32:21;;;;;;;15.47;9.90;;;12.50;99.90;;;;;;5016854;28;20554;-73
2022/10/14 05:34:47;;;;;;;19.30;11.07;;;12.50;99.90;;;;;;5020552;28;20599;-73
2022/10/14 05:37:13;;;;;;;16.10;10.37;;;12.60;99.90;;;;;;5015921;28;20240;-73
2022/10/14 05:39:38;;;;;;;17.27;11.40;;;12.60;99.90;;;;;;4991730;28;20949;-73
2022/10/14 05:42:04;;;;;;;18.73;10.67;;;12.60;99.90;;;;;;5003055;28;20218;-73
2022/10/14 05:44:30;;;;;;;13.40;10.33;;;12.60;99.90;;;;;;5005301;28;20190;-72
2022/10/14 05:46:55;;;;;;;14.50;11.07;;;12.70;99.90;;;;;;4995911;28;20192;-72
2022/10/14 05:49:21;;;;;;;20.43;10.70;;;12.70;99.90;;;;;;5026361;28;20687;-72
2022/10/14 05:51:46;;;;;;;11.33;10.17;;;12.70;99.90;;;;;;5022971;28;20260;-73
2022/10/14 05:54:12;;;;;;;13.43;11.30;;;12.80;99.90;;;;;;5019062;28;20185;-72
2022/10/14 05:56:38;;;;;;;16.40;11.10;;;12.80;99.90;;;;;;5022181;28;20247;-72
2022/10/14 05:59:03;;;;;;;10.77;9.63;;;12.90;99.90;;;;;;5019838;28;20178;-73
2022/10/14 06:01:32;;;;;;;19.87;11.20;;;12.90;99.90;;;;;;5005462;28;20234;-71
2022/10/14 06:03:57;;;;;;;13.43;10.57;;;12.90;99.90;;;;;;5019983;28;20650;-72
2022/10/14 06:06:23;;;;;;;12.00;10.73;;;12.90;99.90;;;;;;5020141;28;20485;-72
2022/10/14 06:08:48;;;;;;;12.40;9.80;;;12.90;99.90;;;;;;5021993;28;20244;-73
2022/10/14 06:11:14;;;;;;;14.87;10.63;;;13.00;99.90;;;;;;5020883;28;20578;-73
2022/10/14 06:13:40;;;;;;;12.77;10.00;;;12.90;99.90;;;;;;5021310;28;20661;-74
2022/10/14 06:16:08;;;;;;;15.43;12.03;;;12.90;99.90;;;;;;5006677;28;20545;-74
2022/10/14 06:18:34;;;;;;;23.23;11.80;;;12.90;99.90;;;;;;5018130;28;20556;-74
2022/10/14 06:21:00;;;;;;;13.80;9.77;;;13.00;99.90;;;;;;5019448;28;20438;-74
2022/10/14 06:23:26;;;;;;;20.03;11.00;;;13.00;99.90;;;;;;5018045;28;20769;-73
2022/10/14 06:25:51;;;;;;;13.50;10.27;;;13.00;99.90;;;;;;5009793;28;20308;-73
2022/10/14 06:28:17;;;;;;;13.30;10.60;;;13.00;99.90;;;;;;5015533;28;20244;-73
2022/10/14 06:30:50;;;;;;;13.07;10.70;;;13.00;99.90;;;;;;5019816;28;20705;-73
2022/10/14 06:33:16;;;;;;;19.67;10.03;;;13.10;99.90;;;;;;5016822;28;20199;-73
2022/10/14 06:35:42;;;;;;;12.03;9.67;;;13.10;99.90;;;;;;5010167;28;20796;-73
2022/10/14 06:38:07;;;;;;;11.80;8.73;;;13.20;99.90;;;;;;5012484;28;20548;-73
2022/10/14 06:40:33;;;;;;;16.43;9.10;;;13.20;99.90;;;;;;5021235;28;20174;-73
2022/10/14 06:42:58;;;;;;;10.57;8.93;;;13.20;99.90;;;;;;5016039;28;20256;-73
2022/10/14 06:45:24;;;;;;;10.63;9.53;;;13.30;99.90;;;;;;5010061;28;20189;-73
2022/10/14 06:47:50;;;;;;;19.97;10.37;;;13.30;99.90;;;;;;5007985;28;20178;-73
2022/10/14 06:50:15;;;;;;;13.60;10.87;;;13.30;99.90;;;;;;5022916;28;20182;-74
2022/10/14 06:52:44;;;;;;;18.13;10.87;;;13.30;99.90;;;;;;5016236;28;20207;-73
2022/10/14 06:55:10;;;;;;;13.20;9.40;;;13.40;99.90;;;;;;5009672;28;20197;-72
2022/10/14 06:57:35;;;;;;;16.67;10.13;;;13.40;99.90;;;;;;5005952;28;20552;-73
2022/10/14 07:00:01;;;;;;;14.00;9.43;;;13.50;99.90;;;;;;5023134;28;20182;-73
2022/10/14 07:02:27;;;;;;;17.27;10.87;;;13.50;99.90;;;;;;5017145;28;20203;-72
2022/10/14 07:04:52;;;;;;;15.60;10.47;;;13.60;99.90;;;;;;5011978;28;20425;-74
2022/10/14 07:07:18;;;;;;;11.83;10.13;;;13.70;99.90;;;;;;5003494;28;20622;-73
2022/10/14 07:09:43;;;;;;;25.00;10.20;;;13.70;99.90;;;;;;5020499;28;20187;-73
2022/10/14 07:12:09;;;;;;;13.40;8.53;;;13.70;99.90;;;;;;5007033;28;20199;-73
2022/10/14 07:14:34;;;;;;;13.60;9.53;;;13.70;99.90;;;;;;5018845;28;20183;-73
2022/10/14 07:17:00;;;;;;;12.00;9.00;;;13.80;99.90;;;;;;5000152;28;20600;-73
2022/10/14 07:19:25;;;;;;;13.87;9.80;;;13.70;99.90;;;;;;5023445;28;20567;-73
2022/10/14 07:21:51;;;;;;;13.33;11.13;;;13.70;99.90;;;;;;5025972;28;20201;-72
2022/10/14 07:24:17;;;;;;;11.13;9.33;;;13.70;99.90;;;;;;5009875;28;20180;-73
2022/10/14 07:26:42;;;;;;;12.00;9.90;;;13.70;99.90;;;;;;5017313;28;20174;-73
2022/10/14 07:29:08;;;;;;;12.27;9.80;;;13.70;99.90;;;;;;5011800;28;20179;-73
2022/10/14 07:31:34;;;;;;;13.43;9.77;;;13.70;99.90;;;;;;5020920;28;20733;-73
2022/10/14 07:34:02;;;;;;;12.80;9.93;;;13.80;99.90;;;;;;5022615;28;20189;-73
2022/10/14 07:36:29;;;;;;;10.20;8.90;;;13.90;99.90;;;;;;5021995;28;20509;-73
2022/10/14 07:38:55;;;;;;;10.83;8.63;;;14.00;99.90;;;;;;5014685;28;20554;-73
2022/10/14 07:41:23;;;;;;;13.20;9.67;;;14.10;99.90;;;;;;5018527;28;20996;-73
2022/10/14 07:43:51;;;;;;;10.03;8.50;;;14.20;99.90;;;;;;5018785;28;20214;-73
2022/10/14 07:46:28;;;;;;;19.37;9.83;;;14.30;99.90;;;;;;5017703;28;20910;-73
2022/10/14 07:48:55;;;;;;;12.67;9.40;;;14.40;99.90;;;;;;5018610;28;20512;-73
2022/10/14 07:51:21;;;;;;;17.57;8.87;;;14.50;99.90;;;;;;5014283;28;20449;-73
2022/10/14 07:53:47;;;;;;;14.40;9.10;;;14.60;99.90;;;;;;5017867;28;20417;-73
2022/10/14 07:56:13;;;;;;;11.20;8.80;;;14.60;99.90;;;;;;5014035;28;20187;-73
2022/10/14 07:58:38;;;;;;;12.80;8.77;;;14.60;99.90;;;;;;5007427;28;20821;-73
2022/10/14 08:01:04;;;;;;;16.70;8.30;;;14.60;99.90;;;;;;5008848;28;20202;-74
2022/10/14 08:03:30;;;;;;;18.33;8.50;;;14.60;99.90;;;;;;5017144;28;20218;-73
2022/10/14 08:06:01;;;;;;;9.53;7.50;;;14.60;99.90;;;;;;5013880;28;20204;-74
2022/10/14 08:08:27;;;;;;;11.37;7.90;;;14.70;99.90;;;;;;5014328;28;20245;-73
2022/10/14 08:11:05;;;;;;;16.17;7.83;;;14.70;99.90;;;;;;5013396;28;20420;-73
2022/10/14 08:13:30;;;;;;;13.40;7.00;;;14.90;99.90;;;;;;5024662;28;20463;-73
2022/10/14 08:15:56;;;;;;;15.37;8.73;;;14.90;99.90;;;;;;5020652;28;20464;-73
2022/10/14 08:18:22;;;;;;;14.63;8.27;;;14.90;99.90;;;;;;5014487;28;20696;-73
2022/10/14 08:20:47;;;;;;;10.97;7.50;;;15.00;99.90;;;;;;5017569;28;20179;-73
2022/10/14 08:23:13;;;;;;;8.87;7.07;;;15.00;99.90;;;;;;5020752;28;20429;-73
2022/10/14 08:25:39;;;;;;;11.37;7.33;;;14.90;99.90;;;;;;5019369;28;20203;-74
2022/10/14 08:28:04;;;;;;;11.90;6.37;;;14.90;99.90;;;;;;5012775;28;20654;-73
2022/10/14 08:30:30;;;;;;;7.23;6.30;;;14.80;99.90;;;;;;5008544;28;20179;-73
2022/10/14 08:32:55;;;;;;;11.33;7.27;;;14.90;99.90;;;;;;5019459;28;20210;-73
2022/10/14 08:35:21;;;;;;;8.10;6.53;;;14.90;99.90;;;;;;5006515;28;20296;-73
2022/10/14 08:38:00;;;;;;;16.00;6.50;;;14.90;99.90;;;;;;5024851;28;20210;-73
2022/10/14 08:40:33;;;;;;;8.63;6.37;;;14.90;99.90;;;;;;5019399;28;20183;-73
2022/10/14 08:43:07;;;;;;;20.10;7.60;;;15.00;99.90;;;;;;5010939;28;20418;-74
2022/10/14 08:45:44;;;;;;;16.33;6.00;;;15.10;99.90;;;;;;5006322;28;20429;-74
2022/10/14 08:48:16;;;;;;;8.77;6.20;;;15.10;99.90;;;;;;5024772;28;21026;-73
2022/10/14 08:50:53;;;;;;;7.90;6.93;;;15.20;99.90;;;;;;5016772;28;20426;-74
2022/10/14 08:53:27;;;;;;;13.50;6.90;;;15.30;99.90;;;;;;5010391;28;20472;-73
2022/10/14 08:55:56;;;;;;;7.63;5.97;;;15.40;99.90;;;;;;5015606;28;20416;-74
2022/10/14 08:58:37;;;;;;;7.00;5.53;;;15.50;99.90;;;;;;5010147;28;20468;-73
2022/10/14 09:01:15;;;;;;;9.40;5.47;;;15.70;99.90;;;;;;5009233;28;20520;-73
2022/10/14 09:03:41;;;;;;;6.50;4.90;;;15.90;99.90;;;;;;5012619;28;20433;-73
2022/10/14 09:06:15;;;;;;;6.80;4.80;;;15.80;99.90;;;;;;5024068;28;20955;-74
2022/10/14 09:08:45;;;;;;;15.60;5.20;;;15.80;99.90;;;;;;5021174;28;20415;-73
2022/10/14 09:11:14;;;;;;;7.63;4.70;;;15.80;99.90;;;;;;5019629;28;20447;-74
2022/10/14 09:13:44;;;;;;;5.93;5.27;;;15.70;99.90;;;;;;5020675;28;20422;-73
2022/10/14 09:16:18;;;;;;;7.30;4.57;;;15.80;99.90;;;;;;5013682;28;20450;-73
2022/10/14 09:18:56;;;;;;;6.30;5.03;;;15.80;99.90;;;;;;5011287;28;20801;-74
2022/10/14 09:21:31;;;;;;;11.00;4.27;;;15.80;99.90;;;;;;5023851;28;20522;-73
2022/10/14 09:24:17;;;;;;;5.27;4.60;;;15.90;99.90;;;;;;5019335;28;20423;-73
2022/10/14 09:26:45;;;;;;;4.37;3.97;;;15.90;99.90;;;;;;5014896;28;20424;-73
2022/10/14 09:29:33;;;;;;;10.87;4.90;;;15.90;99.90;;;;;;5014183;28;20539;-73
2022/10/14 09:32:02;;;;;;;9.90;4.50;;;15.80;99.90;;;;;;5006899;28;20512;-74
2022/10/14 09:34:38;;;;;;;7.57;4.03;;;15.90;99.90;;;;;;5020340;28;20421;-74
2022/10/14 09:37:22;;;;;;;5.30;4.10;;;15.90;99.90;;;;;;5010328;28;20519;-73
2022/10/14 09:39:48;;;;;;;4.57;4.17;;;15.90;99.90;;;;;;5013111;28;20518;-73
2022/10/14 09:42:19;;;;;;;4.57;4.00;;;16.00;99.90;;;;;;5016912;28;20573;-73
2022/10/14 09:45:01;;;;;;;5.83;3.93;;;16.00;99.90;;;;;;5020025;28;20436;-73
2022/10/14 09:47:28;;;;;;;6.90;4.17;;;16.10;99.90;;;;;;5012452;28;20444;-73
2022/10/14 09:49:54;;;;;;;3.73;3.43;;;16.20;99.90;;;;;;5020165;28;20425;-73
2022/10/14 09:52:22;;;;;;;7.97;4.00;;;16.30;99.90;;;;;;5020138;28;20448;-73
2022/10/14 09:54:54;;;;;;;9.77;3.70;;;16.40;99.90;;;;;;5013512;28;20433;-73
2022/10/14 09:57:20;;;;;;;5.20;3.53;;;16.40;99.90;;;;;;5011116;28;20465;-73
2022/10/14 10:00:00;;;;;;;4.87;4.07;;;16.50;99.90;;;;;;5019861;28;20444;-72
2022/10/14 10:02:45;;;;;;;5.13;3.17;;;16.70;99.90;;;;;;5017623;28;20443;-73
2022/10/14 10:05:23;;;;;;;7.20;3.10;;;16.90;99.90;;;;;;5006182;28;20413;-73
2022/10/14 10:08:18;;;;;;;8.40;4.03;;;17.00;99.90;;;;;;4998940;28;20414;-72
2022/10/14 10:10:59;;;;;;;11.53;4.07;;;17.20;99.90;;;;;;5013666;28;20468;-73
2022/10/14 10:13:32;;;;;;;4.77;3.43;;;17.20;99.90;;;;;;5020092;28;20435;-73
2022/10/14 10:15:59;;;;;;;4.07;3.13;;;17.50;99.90;;;;;;5011584;28;20430;-72
2022/10/14 10:18:25;;;;;;;5.43;3.60;;;17.50;99.90;;;;;;4997805;28;20476;-73
2022/10/14 10:21:05;;;;;;;3.40;3.07;;;17.60;99.90;;;;;;5011655;28;20424;-72
2022/10/14 10:23:33;;;;;;;4.67;3.47;;;17.70;99.90;;;;;;5007516;28;20550;-72
2022/10/14 10:26:25;;;;;;;4.50;3.00;;;17.70;99.90;;;;;;5011208;28;20445;-73
2022/10/14 10:28:52;;;;;;;3.70;3.40;;;17.70;99.90;;;;;;5016436;28;20414;-73
2022/10/14 10:31:38;;;;;;;4.50;2.93;;;17.70;99.90;;;;;;5018787;28;20559;-73
2022/10/14 10:34:28;;;;;;;9.60;3.30;;;17.80;99.90;;;;;;5010523;28;20948;-73
2022/10/14 10:37:05;;;;;;;3.17;2.97;;;17.90;99.90;;;;;;5016584;28;20472;-74
2022/10/14 10:39:42;;;;;;;9.10;3.10;;;17.80;99.90;;;;;;5017266;28;20504;-73
2022/10/14 10:42:50;;;;;;;2.63;2.30;;;17.80;99.90;;;;;;5003977;28;20509;-73
2022/10/14 10:45:43;;;;;;;9.67;3.73;;;17.80;99.90;;;;;;5018766;28;20435;-73
2022/10/14 10:48:21;;;;;;;3.47;3.13;;;18.00;99.90;;;;;;5004388;28;20462;-72
2022/10/14 10:51:01;;;;;;;8.17;2.83;;;18.00;99.90;;;;;;5006861;28;20429;-73
2022/10/14 10:53:29;;;;;;;2.97;2.67;;;18.00;99.90;;;;;;5010165;28;20469;-72
2022/10/14 10:56:03;;;;;;;5.80;3.37;;;18.00;99.90;;;;;;5026577;28;20448;-73
2022/10/14 10:58:46;;;;;;;6.63;2.73;;;18.00;99.90;;;;;;5022759;28;20983;-73
2022/10/14 11:01:53;;;;;;;3.23;2.93;;;18.10;99.90;;;;;;5021103;28;20436;-74
2022/10/14 11:04:32;;;;;;;10.83;3.70;;;18.00;99.90;;;;;;5025109;28;20937;-73
2022/10/14 11:13:24;;;;;;;3.47;2.87;;;17.90;99.90;;;;;;5004700;28;20424;-73
2022/10/14 11:16:34;;;;;;;3.00;2.70;;;17.80;99.90;;;;;;5007114;28;20421;-73
2022/10/14 11:19:18;;;;;;;7.00;2.83;;;17.70;99.90;;;;;;5005125;28;20519;-73
2022/10/14 11:22:04;;;;;;;3.90;3.20;;;17.60;99.90;;;;;;5015427;28;20416;-73
2022/10/14 11:24:57;;;;;;;6.70;4.00;;;17.40;99.90;;;;;;5020296;28;20422;-73
2022/10/14 11:27:40;;;;;;;3.13;2.83;;;17.20;99.90;;;;;;5019169;28;20406;-73
2022/10/14 11:30:44;;;;;;;8.30;3.60;;;16.80;99.90;;;;;;5016057;28;20937;-73
2022/10/14 11:33:27;;;;;;;4.90;3.80;;;16.70;99.90;;;;;;5013558;28;20564;-73
2022/10/14 11:36:30;;;;;;;9.17;3.20;;;16.70;99.90;;;;;;5026040;28;20413;-73
2022/10/14 11:39:17;;;;;;;6.33;4.17;;;16.80;99.90;;;;;;5015103;28;20473;-74
2022/10/14 11:41:53;;;;;;;4.73;3.83;;;16.90;99.90;;;;;;5021941;28;20475;-73
2022/10/14 11:44:24;;;;;;;5.20;3.77;;;16.90;99.90;;;;;;5019822;28;20421;-73
2022/10/14 11:46:55;;;;;;;6.57;3.90;;;17.00;99.90;;;;;;5018958;28;20804;-72
2022/10/14 11:49:41;;;;;;;4.00;3.13;;;17.10;99.90;;;;;;5019839;28;20773;-74
2022/10/14 11:52:12;;;;;;;3.93;3.00;;;17.30;99.90;;;;;;5021056;28;20468;-73
2022/10/14 11:54:43;;;;;;;8.40;3.60;;;17.40;99.90;;;;;;5021546;28;20791;-73
2022/10/14 11:57:23;;;;;;;5.93;4.20;;;17.50;99.90;;;;;;5005713;28;20552;-74
2022/10/14 12:03:07;;;;;;;3.67;3.37;;;17.70;99.90;;;;;;5024441;28;20525;-72
2022/10/14 12:06:00;;;;;;;5.27;3.37;;;17.90;99.90;;;;;;5006140;28;20800;-71
2022/10/14 12:08:42;;;;;;;7.90;3.27;;;18.00;99.90;;;;;;5018800;28;20436;-72
2022/10/14 12:11:28;;;;;;;4.73;3.10;;;18.20;99.90;;;;;;5013064;28;20839;-69
2022/10/14 12:14:08;;;;;;;3.27;3.00;;;18.30;99.90;;;;;;5007065;28;20483;-71
2022/10/14 12:16:34;;;;;;;3.47;3.17;;;18.30;99.90;;;;;;5023760;28;20472;-72
2022/10/14 12:19:00;;;;;;;3.37;3.07;;;18.40;99.90;;;;;;5015083;28;20485;-70
2022/10/14 12:21:37;;;;;;;3.13;2.90;;;18.40;99.90;;;;;;5015069;28;20462;-72
2022/10/14 12:24:07;;;;;;;4.13;2.60;;;18.40;99.90;;;;;;5007166;28;20211;-72
2022/10/14 12:26:49;;;;;;;4.07;3.07;;;18.50;99.90;;;;;;5017445;28;20468;-72
2022/10/14 12:29:19;;;;;;;8.03;2.60;;;18.50;99.90;;;;;;5019377;28;20449;-71
2022/10/14 12:31:50;;;;;;;5.37;2.90;;;18.70;99.90;;;;;;5024171;28;20472;-71
2022/10/14 12:34:30;;;;;;;3.10;2.57;;;18.80;99.90;;;;;;5007343;28;20840;-71
2022/10/14 12:36:55;;;;;;;2.77;2.57;;;18.80;99.90;;;;;;5014556;28;20448;-72
2022/10/14 12:39:27;;;;;;;3.00;2.33;;;18.90;99.90;;;;;;5020407;28;20437;-72
2022/10/14 12:41:59;;;;;;;3.27;3.00;;;19.00;99.90;;;;;;5014423;28;20202;-73
2022/10/14 12:44:31;;;;;;;7.67;6.90;;;19.00;99.90;;;;;;5020535;28;20845;-72
2022/10/14 12:46:57;;;;;;;3.17;2.87;;;18.90;99.90;;;;;;5016216;28;20492;-72
2022/10/14 12:49:32;;;;;;;3.60;2.80;;;18.90;99.90;;;;;;5001552;28;20544;-73
2022/10/14 12:52:03;;;;;;;3.53;1.83;;;18.90;99.90;;;;;;5015355;28;20206;-71
2022/10/14 12:54:30;;;;;;;2.37;2.03;;;18.80;99.90;;;;;;5021135;28;20449;-72
2022/10/14 12:57:05;;;;;;;1.93;1.83;;;18.60;99.90;;;;;;5015572;28;20930;-71
2022/10/14 12:59:35;;;;;;;2.80;1.70;;;18.60;99.90;;;;;;5010101;28;20460;-72
2022/10/14 13:02:11;;;;;;;3.77;2.00;;;18.50;99.90;;;;;;5014748;28;20512;-72
2022/10/14 13:04:53;;;;;;;2.00;1.77;;;18.70;99.90;;;;;;5003474;28;20434;-72
2022/10/14 13:07:24;;;;;;;4.20;2.97;;;18.80;99.90;;;;;;5018362;28;20446;-72
2022/10/14 13:09:59;;;;;;;2.20;2.00;;;18.80;99.90;;;;;;4996898;28;20449;-72
2022/10/14 13:12:25;;;;;;;4.43;1.63;;;18.90;99.90;;;;;;5019398;28;20580;-72
2022/10/14 13:14:59;;;;;;;1.97;1.60;;;18.90;99.90;;;;;;5023235;28;20507;-72
2022/10/14 13:17:44;;;;;;;3.13;1.53;;;18.90;99.90;;;;;;5006818;28;20222;-73
2022/10/14 13:20:34;;;;;;;3.47;1.70;;;19.00;99.90;;;;;;5004014;28;20793;-73
2022/10/14 13:23:39;;;;;;;3.07;1.97;;;19.00;99.90;;;;;;5002748;28;20444;-72
2022/10/14 13:26:14;;;;;;;2.80;1.30;;;19.10;99.90;;;;;;5008202;28;20504;-73
2022/10/14 13:28:49;;;;;;;1.50;1.40;;;19.10;99.90;;;;;;4989940;28;20492;-72
2022/10/14 13:31:22;;;;;;;2.10;1.37;;;19.10;99.90;;;;;;5013842;28;20509;-71
2022/10/14 13:33:56;;;;;;;1.97;1.23;;;19.00;99.90;;;;;;5011360;28;20514;-72
2022/10/14 13:36:32;;;;;;;2.00;1.63;;;18.90;99.90;;;;;;5022518;28;20439;-73
2022/10/14 13:39:00;;;;;;;5.70;1.57;;;18.80;99.90;;;;;;5017702;28;20481;-72
2022/10/14 13:41:27;;;;;;;2.33;1.70;;;18.80;99.90;;;;;;5013542;28;20449;-72
2022/10/14 13:43:55;;;;;;;1.93;1.30;;;18.90;99.90;;;;;;4998955;28;20461;-72
2022/10/14 13:46:35;;;;;;;1.33;1.23;;;19.00;99.90;;;;;;5013021;28;20449;-73
2022/10/14 13:49:04;;;;;;;1.33;1.00;;;18.90;99.90;;;;;;5017448;28;20472;-70
2022/10/14 13:51:44;;;;;;;2.83;1.47;;;18.80;99.90;;;;;;5013716;28;20449;-73
2022/10/14 13:54:16;;;;;;;1.77;0.83;;;18.60;99.90;;;;;;5012389;28;20830;-73
2022/10/14 13:56:42;;;;;;;8.00;0.97;;;18.60;99.90;;;;;;5013808;28;20448;-72
2022/10/14 13:59:23;;;;;;;3.33;1.20;;;18.50;99.90;;;;;;5006209;28;20532;-72
2022/10/14 14:01:51;;;;;;;2.17;1.23;;;18.40;99.90;;;;;;5014352;28;20816;-72
2022/10/14 14:04:29;;;;;;;2.93;1.47;;;18.40;99.90;;;;;;5016429;28;20433;-73
2022/10/14 14:06:55;;;;;;;1.77;1.03;;;18.50;99.90;;;;;;5015244;28;20449;-73
2022/10/14 14:09:25;;;;;;;5.13;1.10;;;18.40;99.90;;;;;;5015700;28;20437;-73
2022/10/14 14:11:53;;;;;;;1.40;1.30;;;18.30;99.90;;;;;;5018717;28;20783;-73
2022/10/14 14:14:21;;;;;;;1.00;0.93;;;18.20;99.90;;;;;;5024481;28;20440;-72
2022/10/14 14:16:54;;;;;;;2.20;1.33;;;18.10;99.90;;;;;;5018371;28;20454;-72
2022/10/14 14:19:24;;;;;;;2.93;1.00;;;18.00;99.90;;;;;;5014180;28;20437;-73
2022/10/14 14:21:50;;;;;;;1.37;1.00;;;17.80;99.90;;;;;;5005560;28;20975;-73
2022/10/14 14:24:21;;;;;;;2.73;0.93;;;17.70;99.90;;;;;;5012394;28;20443;-72
2022/10/14 14:26:46;;;;;;;1.10;1.00;;;17.50;99.90;;;;;;5018472;28;20241;-71
2022/10/14 14:29:18;;;;;;;1.07;0.90;;;17.30;99.90;;;;;;5012913;28;20453;-73
2022/10/14 14:31:45;;;;;;;1.83;1.13;;;17.30;99.90;;;;;;5002328;28;20238;-73
2022/10/14 14:34:15;;;;;;;1.80;1.03;;;17.30;99.90;;;;;;5018037;28;20440;-73
2022/10/14 14:36:41;;;;;;;1.07;1.00;;;17.30;99.90;;;;;;5010051;28;20430;-73
2022/10/14 14:39:22;;;;;;;2.90;1.97;;;17.20;99.90;;;;;;5017481;28;20439;-73